sensor_id;sensor_type;location;lat;lon;timestamp;temperature;humidity
23289;DHT22;11813;50.834;4.280;2022-08-16T00:00:49;22.00;99.90
23289;DHT22;11813;50.834;4.280;2022-08-16T00:03:16;22.00;99.90
23289;DHT22;11813;50.834;4.280;2022-08-16T00:05:42;21.90;99.90
23289;DHT22;11813;50.834;4.280;2022-08-16T00:08:08;21.90;99.90
23289;DHT22;11813;50.834;4.280;2022-08-16T00:10:34;22.00;99.90
23289;DHT22;11813;50.834;4.280;2022-08-16T00:13:02;22.00;99.90
23289;DHT22;11813;50.834;4.280;2022-08-16T00:15:36;22.00;99.90
23289;DHT22;11813;50.834;4.280;2022-08-16T00:18:03;21.90;99.90
23289;DHT22;11813;50.834;4.280;2022-08-16T00:20:29;21.90;99.90
23289;DHT22;11813;50.834;4.280;2022-08-16T00:22:54;22.00;99.90
23289;DHT22;11813;50.834;4.280;2022-08-16T00:25:22;21.90;99.90
23289;DHT22;11813;50.834;4.280;2022-08-16T00:27:48;21.90;99.90
23289;DHT22;11813;50.834;4.280;2022-08-16T00:30:14;21.90;99.90
23289;DHT22;11813;50.834;4.280;2022-08-16T00:32:43;21.80;99.90
23289;DHT22;11813;50.834;4.280;2022-08-16T00:35:14;21.80;99.90
23289;DHT22;11813;50.834;4.280;2022-08-16T00:37:39;21.80;99.90
23289;DHT22;11813;50.834;4.280;2022-08-16T00:40:06;21.70;99.90
23289;DHT22;11813;50.834;4.280;2022-08-16T00:42:33;21.60;99.90
23289;DHT22;11813;50.834;4.280;2022-08-16T00:48:02;21.50;99.90
23289;DHT22;11813;50.834;4.280;2022-08-16T00:50:29;21.50;99.90
23289;DHT22;11813;50.834;4.280;2022-08-16T00:52:55;21.50;99.90
23289;DHT22;11813;50.834;4.280;2022-08-16T00:55:22;21.50;99.90
23289;DHT22;11813;50.834;4.280;2022-08-16T00:57:53;21.50;99.90
23289;DHT22;11813;50.834;4.280;2022-08-16T01:00:19;21.50;99.90
23289;DHT22;11813;50.834;4.280;2022-08-16T01:02:45;21.50;99.90
23289;DHT22;11813;50.834;4.280;2022-08-16T01:05:11;21.50;99.90
23289;DHT22;11813;50.834;4.280;2022-08-16T01:07:37;21.40;99.90
23289;DHT22;11813;50.834;4.280;2022-08-16T01:10:04;21.40;99.90
23289;DHT22;11813;50.834;4.280;2022-08-16T01:12:30;21.40;99.90
23289;DHT22;11813;50.834;4.280;2022-08-16T01:14:57;21.30;99.90
23289;DHT22;11813;50.834;4.280;2022-08-16T01:17:26;21.20;99.90
23289;DHT22;11813;50.834;4.280;2022-08-16T01:19:55;21.20;99.90
23289;DHT22;11813;50.834;4.280;2022-08-16T01:22:30;21.10;99.90
23289;DHT22;11813;50.834;4.280;2022-08-16T01:25:22;21.20;99.90
23289;DHT22;11813;50.834;4.280;2022-08-16T01:27:50;21.20;99.90
23289;DHT22;11813;50.834;4.280;2022-08-16T01:30:22;21.10;99.90
23289;DHT22;11813;50.834;4.280;2022-08-16T01:32:50;21.10;99.90
23289;DHT22;11813;50.834;4.280;2022-08-16T01:35:20;21.10;99.90
23289;DHT22;11813;50.834;4.280;2022-08-16T01:37:50;21.10;99.90
23289;DHT22;11813;50.834;4.280;2022-08-16T01:40:18;21.10;99.90
23289;DHT22;11813;50.834;4.280;2022-08-16T01:42:46;21.10;99.90
23289;DHT22;11813;50.834;4.280;2022-08-16T01:45:12;21.00;99.90
23289;DHT22;11813;50.834;4.280;2022-08-16T01:47:39;21.00;99.90
23289;DHT22;11813;50.834;4.280;2022-08-16T01:50:07;21.00;99.90
23289;DHT22;11813;50.834;4.280;2022-08-16T01:52:33;20.90;99.90
23289;DHT22;11813;50.834;4.280;2022-08-16T01:54:59;20.90;99.90
23289;DHT22;11813;50.834;4.280;2022-08-16T01:57:26;20.90;99.90
23289;DHT22;11813;50.834;4.280;2022-08-16T01:59:52;21.00;99.90
23289;DHT22;11813;50.834;4.280;2022-08-16T02:02:18;20.90;99.90
23289;DHT22;11813;50.834;4.280;2022-08-16T02:04:44;20.90;99.90
23289;DHT22;11813;50.834;4.280;2022-08-16T02:07:10;20.80;99.90
23289;DHT22;11813;50.834;4.280;2022-08-16T02:09:38;20.80;99.90
23289;DHT22;11813;50.834;4.280;2022-08-16T02:12:06;20.60;99.90
23289;DHT22;11813;50.834;4.280;2022-08-16T02:14:32;20.60;99.90
23289;DHT22;11813;50.834;4.280;2022-08-16T02:17:01;20.60;99.90
23289;DHT22;11813;50.834;4.280;2022-08-16T02:19:29;20.70;99.90
23289;DHT22;11813;50.834;4.280;2022-08-16T02:21:56;20.70;99.90
23289;DHT22;11813;50.834;4.280;2022-08-16T02:24:22;20.70;99.90
23289;DHT22;11813;50.834;4.280;2022-08-16T02:26:49;20.70;99.90
23289;DHT22;11813;50.834;4.280;2022-08-16T02:29:15;20.70;99.90
23289;DHT22;11813;50.834;4.280;2022-08-16T02:31:45;20.80;99.90
23289;DHT22;11813;50.834;4.280;2022-08-16T02:34:12;20.70;99.90
23289;DHT22;11813;50.834;4.280;2022-08-16T02:36:37;20.60;99.90
23289;DHT22;11813;50.834;4.280;2022-08-16T02:39:05;20.60;99.90
23289;DHT22;11813;50.834;4.280;2022-08-16T02:41:31;20.60;99.90
23289;DHT22;11813;50.834;4.280;2022-08-16T02:43:57;20.70;99.90
23289;DHT22;11813;50.834;4.280;2022-08-16T02:46:25;20.70;99.90
23289;DHT22;11813;50.834;4.280;2022-08-16T02:48:50;20.70;99.90
23289;DHT22;11813;50.834;4.280;2022-08-16T02:51:16;20.70;99.90
23289;DHT22;11813;50.834;4.280;2022-08-16T02:53:44;20.70;99.90
23289;DHT22;11813;50.834;4.280;2022-08-16T02:56:12;20.80;99.90
23289;DHT22;11813;50.834;4.280;2022-08-16T02:58:38;20.80;99.90
23289;DHT22;11813;50.834;4.280;2022-08-16T03:01:04;20.80;99.90
23289;DHT22;11813;50.834;4.280;2022-08-16T03:03:31;20.70;99.90
23289;DHT22;11813;50.834;4.280;2022-08-16T03:05:59;20.60;99.90
23289;DHT22;11813;50.834;4.280;2022-08-16T03:08:24;20.50;99.90
23289;DHT22;11813;50.834;4.280;2022-08-16T03:10:51;20.50;99.90
23289;DHT22;11813;50.834;4.280;2022-08-16T03:13:17;20.50;99.90
23289;DHT22;11813;50.834;4.280;2022-08-16T03:15:44;20.50;99.90
23289;DHT22;11813;50.834;4.280;2022-08-16T03:18:11;20.50;99.90
23289;DHT22;11813;50.834;4.280;2022-08-16T03:20:37;20.40;99.90
23289;DHT22;11813;50.834;4.280;2022-08-16T03:23:03;20.40;99.90
23289;DHT22;11813;50.834;4.280;2022-08-16T03:25:30;20.40;99.90
23289;DHT22;11813;50.834;4.280;2022-08-16T03:27:56;20.30;99.90
23289;DHT22;11813;50.834;4.280;2022-08-16T03:30:28;20.30;99.90
23289;DHT22;11813;50.834;4.280;2022-08-16T03:32:55;20.20;99.90
23289;DHT22;11813;50.834;4.280;2022-08-16T03:35:24;20.30;99.90
23289;DHT22;11813;50.834;4.280;2022-08-16T03:37:54;20.30;99.90
23289;DHT22;11813;50.834;4.280;2022-08-16T03:40:21;20.20;99.90
23289;DHT22;11813;50.834;4.280;2022-08-16T03:42:47;20.20;99.90
23289;DHT22;11813;50.834;4.280;2022-08-16T03:45:13;20.20;99.90
23289;DHT22;11813;50.834;4.280;2022-08-16T03:47:39;20.20;99.90
23289;DHT22;11813;50.834;4.280;2022-08-16T03:50:06;20.20;99.90
23289;DHT22;11813;50.834;4.280;2022-08-16T03:52:33;20.20;99.90
23289;DHT22;11813;50.834;4.280;2022-08-16T03:55:00;20.20;99.90
23289;DHT22;11813;50.834;4.280;2022-08-16T03:57:27;20.20;99.90
23289;DHT22;11813;50.834;4.280;2022-08-16T03:59:52;20.20;99.90
23289;DHT22;11813;50.834;4.280;2022-08-16T04:02:18;20.20;99.90
23289;DHT22;11813;50.834;4.280;2022-08-16T04:04:44;20.10;99.90
23289;DHT22;11813;50.834;4.280;2022-08-16T04:07:09;20.10;99.90
23289;DHT22;11813;50.834;4.280;2022-08-16T04:09:35;20.10;99.90
23289;DHT22;11813;50.834;4.280;2022-08-16T04:12:02;20.10;99.90
23289;DHT22;11813;50.834;4.280;2022-08-16T04:14:28;20.00;99.90
23289;DHT22;11813;50.834;4.280;2022-08-16T04:16:54;20.00;99.90
23289;DHT22;11813;50.834;4.280;2022-08-16T04:19:20;20.00;99.90
23289;DHT22;11813;50.834;4.280;2022-08-16T04:21:49;19.90;99.90
23289;DHT22;11813;50.834;4.280;2022-08-16T04:24:14;20.00;99.90
23289;DHT22;11813;50.834;4.280;2022-08-16T04:26:40;20.00;99.90
23289;DHT22;11813;50.834;4.280;2022-08-16T04:29:06;20.10;99.90
23289;DHT22;11813;50.834;4.280;2022-08-16T04:31:31;20.20;99.90
23289;DHT22;11813;50.834;4.280;2022-08-16T04:33:57;20.20;99.90
23289;DHT22;11813;50.834;4.280;2022-08-16T04:36:26;20.20;99.90
23289;DHT22;11813;50.834;4.280;2022-08-16T04:38:53;20.20;99.90
23289;DHT22;11813;50.834;4.280;2022-08-16T04:41:19;20.10;99.90
23289;DHT22;11813;50.834;4.280;2022-08-16T04:43:45;20.00;99.90
23289;DHT22;11813;50.834;4.280;2022-08-16T04:46:10;20.00;99.90
23289;DHT22;11813;50.834;4.280;2022-08-16T04:48:39;20.10;99.90
23289;DHT22;11813;50.834;4.280;2022-08-16T04:51:06;20.10;99.90
23289;DHT22;11813;50.834;4.280;2022-08-16T04:53:31;20.10;99.90
23289;DHT22;11813;50.834;4.280;2022-08-16T04:55:57;20.10;99.90
23289;DHT22;11813;50.834;4.280;2022-08-16T04:58:23;20.10;99.90
23289;DHT22;11813;50.834;4.280;2022-08-16T05:00:48;20.00;99.90
23289;DHT22;11813;50.834;4.280;2022-08-16T05:03:14;20.10;99.90
23289;DHT22;11813;50.834;4.280;2022-08-16T05:05:40;20.10;99.90
23289;DHT22;11813;50.834;4.280;2022-08-16T05:08:07;20.10;99.90
23289;DHT22;11813;50.834;4.280;2022-08-16T05:10:33;20.10;99.90
23289;DHT22;11813;50.834;4.280;2022-08-16T05:12:59;20.10;99.90
23289;DHT22;11813;50.834;4.280;2022-08-16T05:15:26;20.20;99.90
23289;DHT22;11813;50.834;4.280;2022-08-16T05:17:52;20.20;99.90
23289;DHT22;11813;50.834;4.280;2022-08-16T05:20:19;20.30;99.90
23289;DHT22;11813;50.834;4.280;2022-08-16T05:22:45;20.30;99.90
23289;DHT22;11813;50.834;4.280;2022-08-16T05:25:12;20.20;99.90
23289;DHT22;11813;50.834;4.280;2022-08-16T05:27:39;20.30;99.90
23289;DHT22;11813;50.834;4.280;2022-08-16T05:30:07;20.30;99.90
23289;DHT22;11813;50.834;4.280;2022-08-16T05:32:34;20.30;99.90
23289;DHT22;11813;50.834;4.280;2022-08-16T05:35:00;20.30;99.90
23289;DHT22;11813;50.834;4.280;2022-08-16T05:37:26;20.40;99.90
23289;DHT22;11813;50.834;4.280;2022-08-16T05:39:51;20.40;99.90
23289;DHT22;11813;50.834;4.280;2022-08-16T05:42:17;20.40;99.90
23289;DHT22;11813;50.834;4.280;2022-08-16T05:44:43;20.40;99.90
23289;DHT22;11813;50.834;4.280;2022-08-16T05:47:09;20.40;99.90
23289;DHT22;11813;50.834;4.280;2022-08-16T05:49:34;20.50;99.90
23289;DHT22;11813;50.834;4.280;2022-08-16T05:52:00;20.50;99.90
23289;DHT22;11813;50.834;4.280;2022-08-16T05:54:27;20.70;99.90
23289;DHT22;11813;50.834;4.280;2022-08-16T05:56:56;20.80;99.90
23289;DHT22;11813;50.834;4.280;2022-08-16T05:59:23;20.90;99.90
23289;DHT22;11813;50.834;4.280;2022-08-16T06:01:49;20.90;99.90
23289;DHT22;11813;50.834;4.280;2022-08-16T06:04:17;21.00;99.90
23289;DHT22;11813;50.834;4.280;2022-08-16T06:06:43;20.90;99.90
23289;DHT22;11813;50.834;4.280;2022-08-16T06:09:11;21.10;99.90
23289;DHT22;11813;50.834;4.280;2022-08-16T06:11:37;21.10;99.90
23289;DHT22;11813;50.834;4.280;2022-08-16T06:14:04;21.20;99.90
23289;DHT22;11813;50.834;4.280;2022-08-16T06:16:30;21.30;99.90
23289;DHT22;11813;50.834;4.280;2022-08-16T06:18:56;21.50;99.90
23289;DHT22;11813;50.834;4.280;2022-08-16T06:21:22;21.70;99.90
23289;DHT22;11813;50.834;4.280;2022-08-16T06:23:47;21.80;99.90
23289;DHT22;11813;50.834;4.280;2022-08-16T06:26:13;21.90;99.90
23289;DHT22;11813;50.834;4.280;2022-08-16T06:28:38;21.90;99.90
23289;DHT22;11813;50.834;4.280;2022-08-16T06:31:07;22.00;99.90
23289;DHT22;11813;50.834;4.280;2022-08-16T06:33:33;22.00;99.90
23289;DHT22;11813;50.834;4.280;2022-08-16T06:35:58;22.00;99.90
23289;DHT22;11813;50.834;4.280;2022-08-16T06:38:24;22.10;99.90
23289;DHT22;11813;50.834;4.280;2022-08-16T06:40:50;22.20;99.90
23289;DHT22;11813;50.834;4.280;2022-08-16T06:43:16;22.50;99.90
23289;DHT22;11813;50.834;4.280;2022-08-16T06:45:41;22.70;99.90
23289;DHT22;11813;50.834;4.280;2022-08-16T06:48:09;22.70;99.90
23289;DHT22;11813;50.834;4.280;2022-08-16T06:50:35;22.50;99.90
23289;DHT22;11813;50.834;4.280;2022-08-16T06:53:01;22.60;99.90
23289;DHT22;11813;50.834;4.280;2022-08-16T06:55:28;22.70;99.90
23289;DHT22;11813;50.834;4.280;2022-08-16T06:57:54;22.70;99.90
23289;DHT22;11813;50.834;4.280;2022-08-16T07:00:21;22.80;99.90
23289;DHT22;11813;50.834;4.280;2022-08-16T07:02:47;22.90;99.90
23289;DHT22;11813;50.834;4.280;2022-08-16T07:05:15;23.00;99.90
23289;DHT22;11813;50.834;4.280;2022-08-16T07:07:44;23.20;99.90
23289;DHT22;11813;50.834;4.280;2022-08-16T07:10:10;23.40;99.90
23289;DHT22;11813;50.834;4.280;2022-08-16T07:12:36;23.40;99.90
23289;DHT22;11813;50.834;4.280;2022-08-16T07:15:03;23.70;99.90
23289;DHT22;11813;50.834;4.280;2022-08-16T07:17:30;24.00;99.90
23289;DHT22;11813;50.834;4.280;2022-08-16T07:19:57;24.20;99.90
23289;DHT22;11813;50.834;4.280;2022-08-16T07:22:23;24.30;99.90
23289;DHT22;11813;50.834;4.280;2022-08-16T07:24:49;24.50;99.90
23289;DHT22;11813;50.834;4.280;2022-08-16T07:27:15;24.70;99.90
23289;DHT22;11813;50.834;4.280;2022-08-16T07:29:42;25.00;99.90
23289;DHT22;11813;50.834;4.280;2022-08-16T07:32:08;25.00;99.90
23289;DHT22;11813;50.834;4.280;2022-08-16T07:34:33;25.00;99.90
23289;DHT22;11813;50.834;4.280;2022-08-16T07:37:04;24.90;99.90
23289;DHT22;11813;50.834;4.280;2022-08-16T07:39:30;24.90;99.90
23289;DHT22;11813;50.834;4.280;2022-08-16T07:41:55;24.80;99.90
23289;DHT22;11813;50.834;4.280;2022-08-16T07:44:21;24.70;99.90
23289;DHT22;11813;50.834;4.280;2022-08-16T07:46:46;24.70;99.90
23289;DHT22;11813;50.834;4.280;2022-08-16T07:49:12;24.90;99.90
23289;DHT22;11813;50.834;4.280;2022-08-16T07:51:38;24.80;99.90
23289;DHT22;11813;50.834;4.280;2022-08-16T07:54:07;25.00;99.90
23289;DHT22;11813;50.834;4.280;2022-08-16T07:56:32;25.00;99.90
23289;DHT22;11813;50.834;4.280;2022-08-16T07:58:58;25.10;99.90
23289;DHT22;11813;50.834;4.280;2022-08-16T08:01:24;25.10;99.90
23289;DHT22;11813;50.834;4.280;2022-08-16T08:03:50;25.20;99.90
23289;DHT22;11813;50.834;4.280;2022-08-16T08:06:21;25.30;99.90
23289;DHT22;11813;50.834;4.280;2022-08-16T08:08:48;25.40;99.90
23289;DHT22;11813;50.834;4.280;2022-08-16T08:11:13;25.50;99.90
23289;DHT22;11813;50.834;4.280;2022-08-16T08:13:39;25.60;99.90
23289;DHT22;11813;50.834;4.280;2022-08-16T08:16:05;25.70;99.90
23289;DHT22;11813;50.834;4.280;2022-08-16T08:18:31;25.80;99.90
23289;DHT22;11813;50.834;4.280;2022-08-16T08:20:57;25.80;99.90
23289;DHT22;11813;50.834;4.280;2022-08-16T08:23:23;25.90;99.90
23289;DHT22;11813;50.834;4.280;2022-08-16T08:25:50;26.10;99.90
23289;DHT22;11813;50.834;4.280;2022-08-16T08:28:16;26.10;99.90
23289;DHT22;11813;50.834;4.280;2022-08-16T08:30:43;26.30;99.90
23289;DHT22;11813;50.834;4.280;2022-08-16T08:33:09;26.30;99.90
23289;DHT22;11813;50.834;4.280;2022-08-16T08:35:35;26.20;99.90
23289;DHT22;11813;50.834;4.280;2022-08-16T08:38:02;26.30;99.90
23289;DHT22;11813;50.834;4.280;2022-08-16T08:40:29;26.40;99.90
23289;DHT22;11813;50.834;4.280;2022-08-16T08:42:58;26.50;99.90
23289;DHT22;11813;50.834;4.280;2022-08-16T08:45:24;26.60;99.90
23289;DHT22;11813;50.834;4.280;2022-08-16T08:47:50;26.70;99.90
23289;DHT22;11813;50.834;4.280;2022-08-16T08:50:16;26.70;99.90
23289;DHT22;11813;50.834;4.280;2022-08-16T08:52:43;26.80;99.90
23289;DHT22;11813;50.834;4.280;2022-08-16T08:55:12;26.60;99.90
23289;DHT22;11813;50.834;4.280;2022-08-16T08:57:42;26.40;99.90
23289;DHT22;11813;50.834;4.280;2022-08-16T09:00:10;26.50;99.90
23289;DHT22;11813;50.834;4.280;2022-08-16T09:02:37;26.80;99.90
23289;DHT22;11813;50.834;4.280;2022-08-16T09:05:03;27.00;99.90
23289;DHT22;11813;50.834;4.280;2022-08-16T09:07:28;27.10;99.90
23289;DHT22;11813;50.834;4.280;2022-08-16T09:09:54;27.30;99.90
23289;DHT22;11813;50.834;4.280;2022-08-16T09:12:20;27.30;99.90
23289;DHT22;11813;50.834;4.280;2022-08-16T09:14:45;27.40;99.90
23289;DHT22;11813;50.834;4.280;2022-08-16T09:17:12;27.50;99.90
23289;DHT22;11813;50.834;4.280;2022-08-16T09:19:38;27.40;99.90
23289;DHT22;11813;50.834;4.280;2022-08-16T09:22:05;27.20;99.90
23289;DHT22;11813;50.834;4.280;2022-08-16T09:24:31;26.90;99.90
23289;DHT22;11813;50.834;4.280;2022-08-16T09:26:57;27.00;99.90
23289;DHT22;11813;50.834;4.280;2022-08-16T09:29:23;27.10;99.90
23289;DHT22;11813;50.834;4.280;2022-08-16T09:31:49;27.30;99.90
23289;DHT22;11813;50.834;4.280;2022-08-16T09:34:15;27.50;99.90
23289;DHT22;11813;50.834;4.280;2022-08-16T09:36:41;27.60;99.90
23289;DHT22;11813;50.834;4.280;2022-08-16T09:39:07;27.50;99.90
23289;DHT22;11813;50.834;4.280;2022-08-16T09:41:32;27.60;99.90
23289;DHT22;11813;50.834;4.280;2022-08-16T09:43:58;27.90;99.90
23289;DHT22;11813;50.834;4.280;2022-08-16T09:46:24;28.10;99.90
23289;DHT22;11813;50.834;4.280;2022-08-16T09:48:51;28.30;99.90
23289;DHT22;11813;50.834;4.280;2022-08-16T09:51:19;28.50;99.90
23289;DHT22;11813;50.834;4.280;2022-08-16T09:53:45;28.50;99.90
23289;DHT22;11813;50.834;4.280;2022-08-16T09:56:33;28.60;99.90
23289;DHT22;11813;50.834;4.280;2022-08-16T09:59:02;28.40;99.90
23289;DHT22;11813;50.834;4.280;2022-08-16T10:01:28;28.40;99.90
23289;DHT22;11813;50.834;4.280;2022-08-16T10:03:56;28.40;99.90
23289;DHT22;11813;50.834;4.280;2022-08-16T10:06:23;28.40;99.90
23289;DHT22;11813;50.834;4.280;2022-08-16T10:08:50;28.20;99.90
23289;DHT22;11813;50.834;4.280;2022-08-16T10:11:17;28.20;99.90
23289;DHT22;11813;50.834;4.280;2022-08-16T10:14:02;28.20;99.90
23289;DHT22;11813;50.834;4.280;2022-08-16T10:16:27;28.30;99.90
23289;DHT22;11813;50.834;4.280;2022-08-16T10:18:53;28.10;99.90
23289;DHT22;11813;50.834;4.280;2022-08-16T10:21:20;28.10;99.90
23289;DHT22;11813;50.834;4.280;2022-08-16T10:23:47;28.10;99.90
23289;DHT22;11813;50.834;4.280;2022-08-16T10:26:17;27.90;99.90
23289;DHT22;11813;50.834;4.280;2022-08-16T10:28:43;27.60;99.90
23289;DHT22;11813;50.834;4.280;2022-08-16T10:31:09;27.60;99.90
23289;DHT22;11813;50.834;4.280;2022-08-16T10:33:37;27.40;99.90
23289;DHT22;11813;50.834;4.280;2022-08-16T10:36:04;27.40;99.90
23289;DHT22;11813;50.834;4.280;2022-08-16T10:38:33;27.50;99.90
23289;DHT22;11813;50.834;4.280;2022-08-16T10:40:59;27.50;99.90
23289;DHT22;11813;50.834;4.280;2022-08-16T10:43:25;27.50;99.90
23289;DHT22;11813;50.834;4.280;2022-08-16T10:45:50;27.50;99.90
23289;DHT22;11813;50.834;4.280;2022-08-16T10:48:16;27.60;99.90
23289;DHT22;11813;50.834;4.280;2022-08-16T10:50:42;27.80;99.90
23289;DHT22;11813;50.834;4.280;2022-08-16T10:53:08;28.00;99.90
23289;DHT22;11813;50.834;4.280;2022-08-16T10:55:39;28.00;99.90
23289;DHT22;11813;50.834;4.280;2022-08-16T10:58:11;28.00;99.90
23289;DHT22;11813;50.834;4.280;2022-08-16T11:00:38;28.10;99.90
23289;DHT22;11813;50.834;4.280;2022-08-16T11:03:05;28.10;99.90
23289;DHT22;11813;50.834;4.280;2022-08-16T11:05:33;28.10;99.90
23289;DHT22;11813;50.834;4.280;2022-08-16T11:08:00;28.10;99.90
23289;DHT22;11813;50.834;4.280;2022-08-16T11:10:40;28.00;99.90
23289;DHT22;11813;50.834;4.280;2022-08-16T11:13:07;28.00;99.90
23289;DHT22;11813;50.834;4.280;2022-08-16T11:15:34;28.20;99.90
23289;DHT22;11813;50.834;4.280;2022-08-16T11:18:00;28.20;99.90
23289;DHT22;11813;50.834;4.280;2022-08-16T11:20:26;28.40;99.90
23289;DHT22;11813;50.834;4.280;2022-08-16T11:22:53;28.40;99.90
23289;DHT22;11813;50.834;4.280;2022-08-16T11:25:26;28.50;99.90
23289;DHT22;11813;50.834;4.280;2022-08-16T11:27:54;28.60;99.90
23289;DHT22;11813;50.834;4.280;2022-08-16T11:30:20;28.90;99.90
23289;DHT22;11813;50.834;4.280;2022-08-16T11:32:46;29.10;99.90
23289;DHT22;11813;50.834;4.280;2022-08-16T11:35:19;29.20;99.90
23289;DHT22;11813;50.834;4.280;2022-08-16T11:38:00;29.40;99.90
23289;DHT22;11813;50.834;4.280;2022-08-16T11:40:30;29.70;99.90
23289;DHT22;11813;50.834;4.280;2022-08-16T11:42:56;29.80;99.90
23289;DHT22;11813;50.834;4.280;2022-08-16T11:45:22;29.90;99.90
23289;DHT22;11813;50.834;4.280;2022-08-16T11:47:49;29.80;99.90
23289;DHT22;11813;50.834;4.280;2022-08-16T11:50:15;30.30;99.90
23289;DHT22;11813;50.834;4.280;2022-08-16T11:52:41;30.20;99.90
23289;DHT22;11813;50.834;4.280;2022-08-16T11:55:08;30.40;99.90
23289;DHT22;11813;50.834;4.280;2022-08-16T11:57:35;30.40;99.90
23289;DHT22;11813;50.834;4.280;2022-08-16T12:00:03;30.60;99.90
23289;DHT22;11813;50.834;4.280;2022-08-16T12:02:29;30.70;99.90
23289;DHT22;11813;50.834;4.280;2022-08-16T12:04:54;30.80;99.90
23289;DHT22;11813;50.834;4.280;2022-08-16T12:07:20;31.00;99.90
23289;DHT22;11813;50.834;4.280;2022-08-16T12:09:46;31.00;99.90
23289;DHT22;11813;50.834;4.280;2022-08-16T12:12:12;31.30;99.90
23289;DHT22;11813;50.834;4.280;2022-08-16T12:14:38;31.60;99.90
23289;DHT22;11813;50.834;4.280;2022-08-16T12:17:05;31.50;99.90
23289;DHT22;11813;50.834;4.280;2022-08-16T12:19:31;31.70;99.90
23289;DHT22;11813;50.834;4.280;2022-08-16T12:21:57;31.60;99.90
23289;DHT22;11813;50.834;4.280;2022-08-16T12:24:23;31.60;99.90
23289;DHT22;11813;50.834;4.280;2022-08-16T12:26:50;31.80;99.90
23289;DHT22;11813;50.834;4.280;2022-08-16T12:29:15;32.00;99.90
23289;DHT22;11813;50.834;4.280;2022-08-16T12:31:41;32.00;99.90
23289;DHT22;11813;50.834;4.280;2022-08-16T12:34:07;32.10;99.90
23289;DHT22;11813;50.834;4.280;2022-08-16T12:36:33;31.90;99.90
23289;DHT22;11813;50.834;4.280;2022-08-16T12:39:04;31.90;99.90
23289;DHT22;11813;50.834;4.280;2022-08-16T12:41:32;31.70;99.90
23289;DHT22;11813;50.834;4.280;2022-08-16T12:43:58;31.70;99.90
23289;DHT22;11813;50.834;4.280;2022-08-16T12:46:24;31.80;99.90
23289;DHT22;11813;50.834;4.280;2022-08-16T12:48:49;31.80;99.90
23289;DHT22;11813;50.834;4.280;2022-08-16T12:51:38;32.00;99.90
23289;DHT22;11813;50.834;4.280;2022-08-16T12:54:06;32.00;99.90
23289;DHT22;11813;50.834;4.280;2022-08-16T12:56:36;32.10;99.90
23289;DHT22;11813;50.834;4.280;2022-08-16T12:59:07;32.30;99.90
23289;DHT22;11813;50.834;4.280;2022-08-16T13:01:35;32.80;99.90
23289;DHT22;11813;50.834;4.280;2022-08-16T13:04:03;32.90;99.90
23289;DHT22;11813;50.834;4.280;2022-08-16T13:06:30;32.90;99.90
23289;DHT22;11813;50.834;4.280;2022-08-16T13:08:56;33.10;99.60
23289;DHT22;11813;50.834;4.280;2022-08-16T13:11:36;33.00;98.80
23289;DHT22;11813;50.834;4.280;2022-08-16T13:14:02;32.80;99.40
23289;DHT22;11813;50.834;4.280;2022-08-16T13:16:28;32.70;98.30
23289;DHT22;11813;50.834;4.280;2022-08-16T13:18:53;32.70;98.90
23289;DHT22;11813;50.834;4.280;2022-08-16T13:21:19;33.20;98.90
23289;DHT22;11813;50.834;4.280;2022-08-16T13:23:45;33.40;99.00
23289;DHT22;11813;50.834;4.280;2022-08-16T13:26:11;33.50;98.60
23289;DHT22;11813;50.834;4.280;2022-08-16T13:28:37;33.20;98.40
23289;DHT22;11813;50.834;4.280;2022-08-16T13:31:03;33.10;98.70
23289;DHT22;11813;50.834;4.280;2022-08-16T13:33:32;33.20;98.50
23289;DHT22;11813;50.834;4.280;2022-08-16T13:36:06;33.10;98.60
23289;DHT22;11813;50.834;4.280;2022-08-16T13:38:34;32.80;98.70
23289;DHT22;11813;50.834;4.280;2022-08-16T13:41:00;32.90;99.10
23289;DHT22;11813;50.834;4.280;2022-08-16T13:43:29;32.90;99.00
23289;DHT22;11813;50.834;4.280;2022-08-16T13:45:56;32.90;99.00
23289;DHT22;11813;50.834;4.280;2022-08-16T13:48:25;32.70;98.60
23289;DHT22;11813;50.834;4.280;2022-08-16T13:50:54;32.80;99.50
23289;DHT22;11813;50.834;4.280;2022-08-16T13:53:21;32.90;98.90
23289;DHT22;11813;50.834;4.280;2022-08-16T13:55:48;32.70;98.40
23289;DHT22;11813;50.834;4.280;2022-08-16T13:58:14;32.20;98.10
23289;DHT22;11813;50.834;4.280;2022-08-16T14:00:39;31.70;98.80
23289;DHT22;11813;50.834;4.280;2022-08-16T14:03:07;31.50;98.90
23289;DHT22;11813;50.834;4.280;2022-08-16T14:05:33;31.40;99.10
23289;DHT22;11813;50.834;4.280;2022-08-16T14:07:59;31.50;98.90
23289;DHT22;11813;50.834;4.280;2022-08-16T14:10:25;31.80;99.90
23289;DHT22;11813;50.834;4.280;2022-08-16T14:12:50;31.80;99.90
23289;DHT22;11813;50.834;4.280;2022-08-16T14:15:17;31.90;99.90
23289;DHT22;11813;50.834;4.280;2022-08-16T14:17:43;31.90;99.10
23289;DHT22;11813;50.834;4.280;2022-08-16T14:20:09;32.10;98.80
23289;DHT22;11813;50.834;4.280;2022-08-16T14:22:37;32.10;98.80
23289;DHT22;11813;50.834;4.280;2022-08-16T14:25:09;32.20;99.10
23289;DHT22;11813;50.834;4.280;2022-08-16T14:27:35;32.10;98.70
23289;DHT22;11813;50.834;4.280;2022-08-16T14:30:01;32.20;98.90
23289;DHT22;11813;50.834;4.280;2022-08-16T14:32:29;32.10;98.40
23289;DHT22;11813;50.834;4.280;2022-08-16T14:34:56;32.10;98.90
23289;DHT22;11813;50.834;4.280;2022-08-16T14:37:23;32.40;98.20
23289;DHT22;11813;50.834;4.280;2022-08-16T14:39:48;32.50;98.20
23289;DHT22;11813;50.834;4.280;2022-08-16T14:42:17;32.70;98.10
23289;DHT22;11813;50.834;4.280;2022-08-16T14:44:44;32.80;98.80
23289;DHT22;11813;50.834;4.280;2022-08-16T14:47:10;32.80;98.00
23289;DHT22;11813;50.834;4.280;2022-08-16T14:49:36;32.80;98.10
23289;DHT22;11813;50.834;4.280;2022-08-16T14:52:05;32.40;98.30
23289;DHT22;11813;50.834;4.280;2022-08-16T14:54:31;32.50;98.40
23289;DHT22;11813;50.834;4.280;2022-08-16T14:56:56;33.00;99.50
23289;DHT22;11813;50.834;4.280;2022-08-16T14:59:23;33.90;97.90
23289;DHT22;11813;50.834;4.280;2022-08-16T15:01:50;34.20;97.20
23289;DHT22;11813;50.834;4.280;2022-08-16T15:04:15;34.40;96.70
23289;DHT22;11813;50.834;4.280;2022-08-16T15:06:41;34.30;96.30
23289;DHT22;11813;50.834;4.280;2022-08-16T15:09:07;34.00;96.70
23289;DHT22;11813;50.834;4.280;2022-08-16T15:11:33;33.80;96.90
23289;DHT22;11813;50.834;4.280;2022-08-16T15:13:59;33.90;96.80
23289;DHT22;11813;50.834;4.280;2022-08-16T15:16:25;34.10;96.60
23289;DHT22;11813;50.834;4.280;2022-08-16T15:18:51;34.10;96.70
23289;DHT22;11813;50.834;4.280;2022-08-16T15:21:17;34.00;96.20
23289;DHT22;11813;50.834;4.280;2022-08-16T15:23:43;34.10;96.20
23289;DHT22;11813;50.834;4.280;2022-08-16T15:26:09;34.30;96.80
23289;DHT22;11813;50.834;4.280;2022-08-16T15:28:36;34.70;96.40
23289;DHT22;11813;50.834;4.280;2022-08-16T15:31:03;35.10;95.70